createdAt,value
2018-12-06T00:02:24.493Z,99376.84
2018-12-06T00:04:52.532Z,99372.69
2018-12-06T00:07:22.182Z,99374.16
2018-12-06T00:09:49.725Z,99377.81
2018-12-06T00:12:20.614Z,99373.77
2018-12-06T00:14:49.521Z,99374.70
2018-12-06T00:17:19.075Z,99384.67
2018-12-06T00:19:47.723Z,99380.59
2018-12-06T00:22:16.686Z,99382.80
2018-12-06T00:24:46.924Z,99389.48
2018-12-06T00:27:16.108Z,99391.97
2018-12-06T00:29:49.559Z,99395.74
2018-12-06T00:32:17.379Z,99398.28
2018-12-06T00:34:45.065Z,99397.58
2018-12-06T00:37:13.400Z,99395.74
2018-12-06T00:39:41.184Z,99391.56
2018-12-06T00:42:11.595Z,99386.11
2018-12-06T00:44:40.798Z,99387.72
2018-12-06T00:47:11.284Z,99397.15
2018-12-06T00:49:39.050Z,99404.08
2018-12-06T00:52:08.555Z,99418.36
2018-12-06T00:54:36.396Z,99422.34
2018-12-06T00:57:05.467Z,99410.27
2018-12-06T00:59:33.178Z,99409.13
2018-12-06T01:02:01.147Z,99410.33
2018-12-06T01:04:29.452Z,99409.02
2018-12-06T01:06:58.728Z,99403.47
2018-12-06T01:09:26.918Z,99399.26
2018-12-06T01:11:57.699Z,99395.98
2018-12-06T01:14:45.308Z,99397.45
2018-12-06T01:17:15.210Z,99391.39
2018-12-06T01:19:44.485Z,99382.48
2018-12-06T01:22:13.974Z,99387.41
2018-12-06T01:24:42.936Z,99393.06
2018-12-06T01:27:12.071Z,99391.55
2018-12-06T01:29:42.331Z,99391.55
2018-12-06T01:32:11.879Z,99399.85
2018-12-06T01:34:40.688Z,99397.12
2018-12-06T01:37:11.823Z,99406.45
2018-12-06T01:39:41.382Z,99411.60
2018-12-06T01:42:09.023Z,99413.11
2018-12-06T01:44:36.860Z,99409.76
2018-12-06T01:47:04.391Z,99410.63
2018-12-06T01:49:31.874Z,99414.81
2018-12-06T01:51:59.402Z,99416.62
2018-12-06T01:54:26.895Z,99416.45
2018-12-06T01:56:54.423Z,99411.00
2018-12-06T01:59:21.924Z,99410.53
2018-12-06T02:01:49.456Z,99412.23
2018-12-06T02:04:16.958Z,99408.62
2018-12-06T02:06:44.489Z,99407.92
2018-12-06T02:09:11.988Z,99406.48
2018-12-06T02:11:39.608Z,99405.17
2018-12-06T02:14:07.286Z,99402.02
2018-12-06T02:16:34.820Z,99399.48
2018-12-06T02:19:02.322Z,99395.00
2018-12-06T02:21:29.851Z,99390.25
2018-12-06T02:23:57.354Z,99395.41
2018-12-06T02:26:24.879Z,99399.81
2018-12-06T02:28:52.375Z,99400.72
2018-12-06T02:31:20.392Z,99390.05
2018-12-06T02:33:47.882Z,99385.45
2018-12-06T02:36:15.412Z,99385.59
2018-12-06T02:38:42.907Z,99375.34
2018-12-06T02:41:10.734Z,99377.78
2018-12-06T02:43:38.227Z,99376.94
2018-12-06T02:46:05.768Z,99336.88
2018-12-06T02:48:33.267Z,99370.67
2018-12-06T02:51:00.799Z,99369.72
2018-12-06T02:53:28.308Z,99364.15
2018-12-06T02:55:55.843Z,99368.20
2018-12-06T02:58:23.339Z,99368.02
2018-12-06T03:00:50.831Z,99357.76
2018-12-06T03:03:18.443Z,99362.67
2018-12-06T03:05:45.984Z,99355.63
2018-12-06T03:08:13.517Z,99357.01
2018-12-06T03:10:41.005Z,99357.23
2018-12-06T03:13:08.526Z,99354.84
2018-12-06T03:15:36.018Z,99354.84
2018-12-06T03:18:03.548Z,99351.39
2018-12-06T03:20:31.041Z,99348.02
2018-12-06T03:22:58.584Z,99339.50
2018-12-06T03:25:26.079Z,99345.59
2018-12-06T03:27:53.617Z,99337.44
2018-12-06T03:30:21.118Z,99332.28
2018-12-06T03:32:48.688Z,99337.84
2018-12-06T03:35:16.188Z,99335.77
2018-12-06T03:37:43.717Z,99335.98
2018-12-06T03:40:11.306Z,99342.66
2018-12-06T03:42:38.827Z,99345.67
2018-12-06T03:45:06.415Z,99342.98
2018-12-06T03:47:33.947Z,99355.03
2018-12-06T03:50:01.461Z,99360.59
2018-12-06T03:52:29.092Z,99362.11
2018-12-06T03:54:56.594Z,99366.22
2018-12-06T03:57:24.119Z,99373.44
2018-12-06T03:59:51.613Z,99380.30
2018-12-06T04:02:19.140Z,99382.44
2018-12-06T04:04:46.633Z,99380.98
2018-12-06T04:07:14.176Z,99390.28
2018-12-06T04:09:41.667Z,99382.05
2018-12-06T04:12:09.196Z,99389.34
2018-12-06T04:14:36.727Z,99386.83
2018-12-06T04:17:04.264Z,99387.52
2018-12-06T04:19:31.758Z,99395.50
2018-12-06T04:21:59.283Z,99389.05
2018-12-06T04:24:26.786Z,99387.45
2018-12-06T04:26:54.321Z,99393.19
2018-12-06T04:29:21.821Z,99396.81
2018-12-06T04:31:49.435Z,99398.20
2018-12-06T04:34:16.934Z,99398.81
2018-12-06T04:36:44.548Z,99401.34
2018-12-06T04:39:12.078Z,99394.97
2018-12-06T04:41:39.587Z,99396.67
2018-12-06T04:44:07.385Z,99389.38
2018-12-06T04:46:34.884Z,99397.69
2018-12-06T04:49:02.412Z,99403.75
2018-12-06T04:51:29.907Z,99405.97
2018-12-06T04:53:57.437Z,99398.37
2018-12-06T04:56:24.946Z,99397.91
2018-12-06T04:58:52.480Z,99393.98
2018-12-06T05:01:19.986Z,99398.20
2018-12-06T05:03:47.519Z,99399.06
2018-12-06T05:06:15.204Z,99404.36
2018-12-06T05:08:42.745Z,99409.30
2018-12-06T05:11:10.235Z,99410.28
2018-12-06T05:13:37.763Z,99419.66
2018-12-06T05:16:05.263Z,99419.14
2018-12-06T05:18:32.823Z,99420.30
2018-12-06T05:21:00.323Z,99424.22
2018-12-06T05:23:27.980Z,99421.83
2018-12-06T05:25:55.472Z,99420.20
2018-12-06T05:28:22.995Z,99421.50
2018-12-06T05:30:50.499Z,99428.91
2018-12-06T05:33:18.038Z,99431.89
2018-12-06T05:35:45.538Z,99436.75
2018-12-06T05:38:13.166Z,99433.52
2018-12-06T05:40:40.722Z,99434.42
2018-12-06T05:43:08.255Z,99443.66
2018-12-06T05:45:35.757Z,99447.35
2018-12-06T05:48:03.279Z,99451.53
2018-12-06T05:50:30.766Z,99435.91
2018-12-06T05:52:58.296Z,99448.59
2018-12-06T05:55:26.186Z,99441.58
2018-12-06T05:57:53.755Z,99445.43
2018-12-06T06:00:21.361Z,99455.67
2018-12-06T06:02:48.893Z,99459.66
2018-12-06T06:05:16.390Z,99448.73
2018-12-06T06:07:43.914Z,99458.75
2018-12-06T06:10:11.411Z,99466.13
2018-12-06T06:12:39.141Z,99483.13
2018-12-06T06:15:06.719Z,99486.83
2018-12-06T06:17:34.214Z,99484.28
2018-12-06T06:20:01.837Z,99498.20
2018-12-06T06:22:29.390Z,99499.29
2018-12-06T06:24:56.925Z,99498.34
2018-12-06T06:30:27.451Z,99506.84
2018-12-06T06:32:54.975Z,99516.62
2018-12-06T06:35:22.575Z,99513.53
2018-12-06T06:37:50.089Z,99514.98
2018-12-06T06:40:17.622Z,99519.85
2018-12-06T06:42:45.132Z,99520.00
2018-12-06T06:45:12.709Z,99512.00
2018-12-06T06:47:40.208Z,99512.22
2018-12-06T06:50:07.755Z,99511.89
2018-12-06T06:52:35.264Z,99509.13
2018-12-06T06:55:02.799Z,99504.99
2018-12-06T06:57:30.306Z,99504.70
2018-12-06T06:59:57.844Z,99503.47
2018-12-06T07:02:25.342Z,99519.52
2018-12-06T07:04:52.872Z,99522.47
2018-12-06T07:07:20.364Z,99531.00
2018-12-06T07:09:47.908Z,99533.77
2018-12-06T07:12:18.107Z,99532.71
2018-12-06T07:14:45.874Z,99541.25
2018-12-06T07:17:13.360Z,99548.16
2018-12-06T07:19:40.898Z,99544.78
2018-12-06T07:22:08.393Z,99543.87
2018-12-06T07:24:35.924Z,99552.63
2018-12-06T07:27:03.424Z,99549.94
2018-12-06T07:29:30.953Z,99556.00
2018-12-06T07:31:58.447Z,99558.07
2018-12-06T07:34:25.987Z,99573.91
2018-12-06T07:36:53.487Z,99577.77
2018-12-06T07:39:21.019Z,99572.86
2018-12-06T07:41:48.514Z,99579.10
2018-12-06T07:44:16.046Z,99583.33
2018-12-06T07:46:43.669Z,99580.38
2018-12-06T07:49:11.215Z,99587.72
2018-12-06T07:51:38.711Z,99582.23
2018-12-06T07:54:06.250Z,99589.08
2018-12-06T07:56:33.743Z,99587.77
2018-12-06T07:59:01.282Z,99587.55
2018-12-06T08:01:28.903Z,99591.25
2018-12-06T08:03:57.138Z,99601.10
2018-12-06T08:06:25.164Z,99588.56
2018-12-06T08:08:52.691Z,99599.80
2018-12-06T08:11:20.189Z,99597.43
2018-12-06T08:13:47.720Z,99604.81
2018-12-06T08:16:15.402Z,99620.91
2018-12-06T08:18:42.914Z,99623.35
2018-12-06T08:21:10.532Z,99631.83
2018-12-06T08:23:38.079Z,99625.28
2018-12-06T08:26:05.613Z,99623.38
2018-12-06T08:28:33.117Z,99622.84
2018-12-06T08:31:00.672Z,99619.13
2018-12-06T08:33:28.290Z,99618.14
2018-12-06T08:35:55.825Z,99631.38
2018-12-06T08:38:23.319Z,99638.61
2018-12-06T08:40:50.852Z,99641.55
2018-12-06T08:43:18.359Z,99653.34
2018-12-06T08:45:45.892Z,99663.20
2018-12-06T08:48:13.388Z,99665.13
2018-12-06T08:50:40.945Z,99675.30
2018-12-06T08:53:08.466Z,99680.76
2018-12-06T08:55:36.009Z,99667.28
2018-12-06T08:58:05.372Z,99670.04
2018-12-06T09:00:33.139Z,99670.58
2018-12-06T09:03:00.637Z,99660.70
2018-12-06T09:05:28.176Z,99669.43
2018-12-06T09:07:56.214Z,99673.02
2018-12-06T09:10:23.814Z,99669.73
2018-12-06T09:12:51.307Z,99677.05
2018-12-06T09:15:18.975Z,99678.12
2018-12-06T09:17:46.558Z,99686.67
2018-12-06T09:20:14.153Z,99691.57
2018-12-06T09:22:41.647Z,99694.28
2018-12-06T09:25:09.183Z,99687.09
2018-12-06T09:27:36.681Z,99704.97
2018-12-06T09:30:05.408Z,99701.64
2018-12-06T09:32:32.903Z,99705.89
2018-12-06T09:35:00.440Z,99712.42
2018-12-06T09:37:27.937Z,99707.09
2018-12-06T09:39:57.101Z,99701.97
2018-12-06T09:42:24.685Z,99698.27
2018-12-06T09:44:52.347Z,99702.05
2018-12-06T09:47:19.863Z,99690.92
2018-12-06T09:49:47.514Z,99694.45
2018-12-06T09:52:15.023Z,99708.61
2018-12-06T09:54:43.191Z,99707.53
2018-12-06T09:57:10.899Z,99715.71
2018-12-06T09:59:38.414Z,99708.62
2018-12-06T10:02:05.984Z,99704.89
2018-12-06T10:04:33.606Z,99697.69
2018-12-06T10:07:01.148Z,99689.95
2018-12-06T10:09:28.649Z,99688.39
2018-12-06T10:11:56.192Z,99699.64
2018-12-06T10:14:23.695Z,99697.89
2018-12-06T10:16:51.329Z,99708.47
2018-12-06T10:19:18.836Z,99714.12
2018-12-06T10:21:46.371Z,99697.98
2018-12-06T10:24:13.872Z,99696.50
2018-12-06T10:26:41.407Z,99699.80
2018-12-06T10:29:08.900Z,99707.09
2018-12-06T10:31:36.439Z,99706.00
2018-12-06T10:34:03.933Z,99706.76
2018-12-06T10:36:31.468Z,99695.41
2018-12-06T10:38:58.972Z,99692.53
2018-12-06T10:41:26.515Z,99689.70
2018-12-06T10:43:54.032Z,99688.95
2018-12-06T10:46:22.465Z,99688.59
2018-12-06T10:48:50.051Z,99681.20
2018-12-06T10:51:29.437Z,99670.30
2018-12-06T10:53:56.939Z,99678.58
2018-12-06T10:56:24.486Z,99671.70
2018-12-06T10:58:51.989Z,99674.50
2018-12-06T11:01:21.522Z,99676.86
2018-12-06T11:04:04.922Z,99682.03
2018-12-06T11:06:32.511Z,99688.69
2018-12-06T11:09:00.021Z,99692.81
2018-12-06T11:11:27.605Z,99698.55
2018-12-06T11:13:55.104Z,99691.89
2018-12-06T11:16:22.672Z,99692.37
2018-12-06T11:18:50.182Z,99700.16
2018-12-06T11:21:17.702Z,99704.47
2018-12-06T11:23:45.252Z,99685.51
2018-12-06T11:26:12.745Z,99687.44
2018-12-06T11:28:40.307Z,99692.70
2018-12-06T11:31:07.811Z,99697.03
2018-12-06T11:33:35.349Z,99696.30
2018-12-06T11:36:02.856Z,99707.81
2018-12-06T11:38:30.386Z,99703.52
2018-12-06T11:40:57.872Z,99701.90
2018-12-06T11:43:25.743Z,99711.84
2018-12-06T11:45:53.240Z,99709.78
2018-12-06T11:48:26.926Z,99718.87
2018-12-06T11:50:50.299Z,99719.89
2018-12-06T11:53:19.319Z,99714.16
2018-12-06T11:55:46.956Z,99715.55
2018-12-06T11:58:14.484Z,99717.34
2018-12-06T12:00:41.984Z,99720.28
2018-12-06T12:03:09.536Z,99720.95
2018-12-06T12:05:37.054Z,99713.50
2018-12-06T12:08:04.599Z,99722.27
2018-12-06T12:10:32.098Z,99735.16
2018-12-06T12:12:59.635Z,99726.96
2018-12-06T12:15:27.138Z,99722.00
2018-12-06T12:17:54.678Z,99718.59
2018-12-06T12:20:22.182Z,99710.70
2018-12-06T12:22:49.738Z,99710.44
2018-12-06T12:25:17.244Z,99709.88
2018-12-06T12:27:44.779Z,99699.66
2018-12-06T12:30:12.346Z,99696.47
2018-12-06T12:32:43.791Z,99699.31
2018-12-06T12:35:11.946Z,99701.38
2018-12-06T12:37:39.544Z,99697.64
2018-12-06T12:40:09.134Z,99702.13
2018-12-06T12:42:36.741Z,99699.23
2018-12-06T12:45:05.504Z,99701.77
2018-12-06T12:47:34.674Z,99696.89
2018-12-06T12:50:03.984Z,99697.34
2018-12-06T12:52:34.564Z,99692.38
2018-12-06T12:55:02.211Z,99685.80
2018-12-06T12:57:29.757Z,99690.88
2018-12-06T12:59:57.258Z,99676.23
2018-12-06T13:02:24.800Z,99674.83
2018-12-06T13:04:52.633Z,99688.45
2018-12-06T13:07:20.147Z,99692.77
2018-12-06T13:09:47.697Z,99693.16
2018-12-06T13:12:15.241Z,99701.04
2018-12-06T13:14:42.776Z,99697.37
2018-12-06T13:17:10.288Z,99692.94
2018-12-06T13:19:37.811Z,99699.16
2018-12-06T13:22:05.663Z,99695.40
2018-12-06T13:24:33.222Z,99693.34
2018-12-06T13:27:00.713Z,99689.39
2018-12-06T13:29:28.234Z,99686.94
2018-12-06T13:31:55.731Z,99696.14
2018-12-06T13:34:23.261Z,99689.95
2018-12-06T13:36:50.763Z,99686.10
2018-12-06T13:39:18.327Z,99687.51
2018-12-06T13:41:45.823Z,99676.50
2018-12-06T13:44:14.515Z,99684.30
2018-12-06T13:46:42.326Z,99692.02
2018-12-06T13:49:09.851Z,99691.84
2018-12-06T13:51:37.436Z,99685.71
2018-12-06T13:54:04.993Z,99678.56
2018-12-06T13:56:32.483Z,99680.17
2018-12-06T13:59:00.016Z,99674.44
2018-12-06T14:01:27.640Z,99683.64
2018-12-06T14:03:55.717Z,99680.83
2018-12-06T14:06:23.264Z,99676.41
2018-12-06T14:08:50.889Z,99679.03
2018-12-06T14:11:18.778Z,99683.64
2018-12-06T14:13:46.307Z,99685.92
2018-12-06T14:16:13.804Z,99682.52
2018-12-06T14:18:41.336Z,99683.47
2018-12-06T14:21:09.495Z,99691.56
2018-12-06T14:23:37.119Z,99698.41
2018-12-06T14:26:06.503Z,99701.13
2018-12-06T14:28:35.352Z,99704.80
2018-12-06T14:31:03.485Z,99708.27
2018-12-06T14:33:31.246Z,99710.81
2018-12-06T14:35:58.774Z,99712.41
2018-12-06T14:38:26.324Z,99707.80
2018-12-06T14:40:53.903Z,99707.05
2018-12-06T14:43:21.754Z,99711.45
2018-12-06T14:45:49.636Z,99706.66
2018-12-06T14:48:17.710Z,99719.07
2018-12-06T14:50:45.248Z,99724.42
2018-12-06T14:53:12.763Z,99723.41
2018-12-06T14:55:40.296Z,99703.20
2018-12-06T14:58:07.797Z,99703.67
2018-12-06T15:00:35.328Z,99707.50
2018-12-06T15:03:02.828Z,99704.88
2018-12-06T15:05:30.364Z,99699.25
2018-12-06T15:07:57.859Z,99688.44
2018-12-06T15:10:25.395Z,99690.89
2018-12-06T15:12:52.951Z,99702.16
2018-12-06T15:15:20.591Z,99719.82
2018-12-06T15:17:48.092Z,99708.34
2018-12-06T15:20:15.753Z,99706.76
2018-12-06T15:22:43.390Z,99701.38
2018-12-06T15:25:11.168Z,99705.32
2018-12-06T15:27:38.851Z,99704.22
2018-12-06T15:32:42.985Z,99708.16
2018-12-06T15:35:10.613Z,99701.95
2018-12-06T15:37:38.112Z,99706.06
2018-12-06T15:40:06.037Z,99713.78
2018-12-06T15:42:33.562Z,99706.84
2018-12-06T15:45:01.091Z,99712.58
2018-12-06T15:47:28.589Z,99712.89
2018-12-06T15:49:56.127Z,99710.43
2018-12-06T15:52:23.623Z,99710.25
2018-12-06T15:54:51.349Z,99706.10
2018-12-06T15:57:18.898Z,99712.28
2018-12-06T15:59:46.518Z,99701.22
2018-12-06T16:02:14.030Z,99721.34
2018-12-06T16:04:41.589Z,99722.09
2018-12-06T16:07:09.179Z,99734.10
2018-12-06T16:09:36.704Z,99725.47
2018-12-06T16:12:04.199Z,99734.85
2018-12-06T16:14:31.743Z,99735.42
2018-12-06T16:16:59.291Z,99735.12
2018-12-06T16:19:26.827Z,99738.97
2018-12-06T16:21:54.355Z,99742.92
2018-12-06T16:24:21.855Z,99743.75
2018-12-06T16:26:49.383Z,99741.30
2018-12-06T16:29:16.910Z,99735.55
2018-12-06T16:31:44.446Z,99729.91
2018-12-06T16:34:12.033Z,99724.38
2018-12-06T16:36:39.588Z,99727.67
2018-12-06T16:39:12.960Z,99730.47
2018-12-06T16:41:40.490Z,99727.31
2018-12-06T16:44:09.887Z,99725.25
2018-12-06T16:46:42.120Z,99725.91
2018-12-06T16:49:13.637Z,99733.89
2018-12-06T16:51:44.784Z,99738.11
2018-12-06T16:54:12.500Z,99741.52
2018-12-06T16:56:40.047Z,99738.88
2018-12-06T16:59:07.537Z,99738.11
2018-12-06T17:01:35.413Z,99740.38
2018-12-06T17:04:02.899Z,99744.59
2018-12-06T17:06:30.432Z,99743.75
2018-12-06T17:08:57.944Z,99737.66
2018-12-06T17:11:25.492Z,99742.05
2018-12-06T17:13:52.987Z,99741.39
2018-12-06T17:16:20.520Z,99749.31
2018-12-06T17:21:25.056Z,99743.93
2018-12-06T17:23:52.573Z,99748.75
2018-12-06T17:26:22.863Z,99752.30
2018-12-06T17:28:50.564Z,99755.29
2018-12-06T17:31:18.087Z,99750.24
2018-12-06T17:33:45.603Z,99749.67
2018-12-06T17:36:13.140Z,99752.39
2018-12-06T17:38:40.645Z,99747.40
2018-12-06T17:41:08.175Z,99753.97
2018-12-06T17:43:35.762Z,99745.16
2018-12-06T17:46:03.295Z,99745.06
2018-12-06T17:48:31.120Z,99758.13
2018-12-06T17:50:58.707Z,99746.65
2018-12-06T17:53:26.198Z,99741.77
2018-12-06T17:55:53.921Z,99745.59
2018-12-06T17:58:21.431Z,99742.69
2018-12-06T18:00:48.968Z,99742.95
2018-12-06T18:03:16.479Z,99738.27
2018-12-06T18:05:43.985Z,99722.93
2018-12-06T18:08:16.427Z,99734.50
2018-12-06T18:13:24.715Z,99735.73
2018-12-06T18:15:58.996Z,99739.72
2018-12-06T18:21:12.453Z,99733.41
2018-12-06T18:23:45.257Z,99728.02
2018-12-06T18:26:14.322Z,99723.99
2018-12-06T18:28:42.162Z,99726.00
2018-12-06T18:31:12.598Z,99719.03
2018-12-06T18:33:43.788Z,99720.26
2018-12-06T18:36:13.848Z,99727.02
2018-12-06T18:38:41.730Z,99714.34
2018-12-06T18:41:09.892Z,99725.44
2018-12-06T18:43:38.850Z,99721.70
2018-12-06T18:46:08.031Z,99728.16
2018-12-06T18:48:39.648Z,99733.14
2018-12-06T18:51:09.472Z,99729.02
2018-12-06T18:53:41.095Z,99722.62
2018-12-06T18:56:14.680Z,99719.22
2018-12-06T18:58:46.120Z,99730.30
2018-12-06T19:01:17.600Z,99721.31
2018-12-06T19:03:45.370Z,99727.41
2018-12-06T19:06:12.885Z,99726.66
2018-12-06T19:08:40.417Z,99725.88
2018-12-06T19:11:07.917Z,99724.64
2018-12-06T19:13:35.494Z,99729.16
2018-12-06T19:16:03.001Z,99727.66
2018-12-06T19:18:30.528Z,99730.47
2018-12-06T19:20:58.698Z,99729.94
2018-12-06T19:23:27.403Z,99723.55
2018-12-06T19:25:56.015Z,99728.80
2018-12-06T19:28:23.543Z,99722.49
2018-12-06T19:30:52.475Z,99716.40
2018-12-06T19:33:20.050Z,99727.19
2018-12-06T19:35:47.558Z,99726.44
2018-12-06T19:38:15.087Z,99727.48
2018-12-06T19:40:42.920Z,99729.55
2018-12-06T19:43:11.288Z,99726.92
2018-12-06T19:45:39.008Z,99728.02
2018-12-06T19:48:06.534Z,99727.75
2018-12-06T19:50:34.120Z,99727.53
2018-12-06T19:53:01.644Z,99713.73
2018-12-06T19:55:29.138Z,99722.48
2018-12-06T19:57:57.734Z,99718.64
2018-12-06T20:00:25.298Z,99723.59
2018-12-06T20:02:53.385Z,99729.14
2018-12-06T20:05:21.802Z,99734.98
2018-12-06T20:07:50.279Z,99728.41
2018-12-06T20:13:01.664Z,99740.77
2018-12-06T20:15:29.268Z,99741.55
2018-12-06T20:17:56.839Z,99735.55
2018-12-06T20:20:25.058Z,99731.78
2018-12-06T20:22:53.721Z,99730.38
2018-12-06T20:25:21.935Z,99738.52
2018-12-06T20:27:50.724Z,99743.30
2018-12-06T20:30:19.187Z,99743.84
2018-12-06T20:32:47.365Z,99742.69
2018-12-06T20:35:15.008Z,99748.64
2018-12-06T20:37:42.651Z,99742.98
2018-12-06T20:40:10.689Z,99744.64
2018-12-06T20:42:38.314Z,99737.53
2018-12-06T20:45:06.048Z,99743.80
2018-12-06T20:47:33.768Z,99742.97
2018-12-06T20:50:03.921Z,99735.92
2018-12-06T20:52:31.713Z,99730.66
2018-12-06T20:54:59.313Z,99728.12
2018-12-06T20:57:26.894Z,99731.50
2018-12-06T20:59:54.538Z,99727.20
2018-12-06T21:02:22.072Z,99732.93
2018-12-06T21:04:49.637Z,99727.76
2018-12-06T21:07:17.173Z,99732.63
2018-12-06T21:09:44.763Z,99727.54
2018-12-06T21:12:12.307Z,99731.22
2018-12-06T21:14:39.869Z,99716.61
2018-12-06T21:17:09.061Z,99724.02
2018-12-06T21:19:36.623Z,99716.70
2018-12-06T21:22:04.570Z,99717.84
2018-12-06T21:24:32.268Z,99718.76
2018-12-06T21:26:59.775Z,99717.05
2018-12-06T21:29:27.318Z,99710.03
2018-12-06T21:31:54.899Z,99707.98
2018-12-06T21:34:22.469Z,99722.19
2018-12-06T21:36:49.986Z,99716.80
2018-12-06T21:39:17.824Z,99720.88
2018-12-06T21:41:49.055Z,99721.26
2018-12-06T21:44:19.241Z,99717.76
2018-12-06T21:46:48.952Z,99704.70
2018-12-06T21:49:17.812Z,99711.58
2018-12-06T21:51:45.445Z,99712.23
2018-12-06T21:54:13.979Z,99725.38
2018-12-06T21:56:42.961Z,99712.06
2018-12-06T21:59:13.764Z,99719.16
2018-12-06T22:01:50.170Z,99713.16
2018-12-06T22:04:19.262Z,99718.67
2018-12-06T22:06:48.284Z,99709.77
2018-12-06T22:09:17.547Z,99708.90
2018-12-06T22:11:45.157Z,99714.16
2018-12-06T22:14:12.730Z,99706.58
2018-12-06T22:16:40.251Z,99711.27
2018-12-06T22:19:11.051Z,99703.77
2018-12-06T22:21:40.275Z,99708.38
2018-12-06T22:24:10.312Z,99696.28
2018-12-06T22:26:38.538Z,99703.22
2018-12-06T22:29:08.321Z,99698.91
2018-12-06T22:31:39.339Z,99702.95
2018-12-06T22:34:07.829Z,99698.00
2018-12-06T22:36:36.607Z,99705.88
2018-12-06T22:39:07.545Z,99699.22
2018-12-06T22:41:35.808Z,99691.56
2018-12-06T22:44:05.273Z,99700.02
2018-12-06T22:46:32.948Z,99691.55
2018-12-06T22:49:00.516Z,99693.70
2018-12-06T22:51:29.870Z,99695.31
2018-12-06T22:53:59.743Z,99693.22
2018-12-06T22:56:29.474Z,99701.66
2018-12-06T22:58:57.037Z,99697.63
2018-12-06T23:01:31.380Z,99705.87
2018-12-06T23:04:00.653Z,99697.54
2018-12-06T23:06:32.499Z,99698.11
2018-12-06T23:09:06.094Z,99688.00
2018-12-06T23:11:36.739Z,99692.04
2018-12-06T23:14:07.356Z,99685.47
2018-12-06T23:16:38.716Z,99691.69
2018-12-06T23:19:09.565Z,99681.44
2018-12-06T23:21:41.365Z,99683.53
2018-12-06T23:24:09.780Z,99690.64
2018-12-06T23:26:37.507Z,99684.85
2018-12-06T23:29:05.044Z,99685.77
2018-12-06T23:31:32.612Z,99672.81
2018-12-06T23:34:00.185Z,99670.36
2018-12-06T23:36:29.307Z,99673.94
2018-12-06T23:38:59.067Z,99675.34
2018-12-06T23:41:26.792Z,99672.63
2018-12-06T23:44:00.089Z,99667.55
2018-12-06T23:46:31.346Z,99667.16
2018-12-06T23:49:00.090Z,99666.23
2018-12-06T23:51:36.517Z,99657.69
2018-12-06T23:54:04.362Z,99665.67
2018-12-06T23:56:34.118Z,99647.27
2018-12-06T23:59:02.502Z,99653.48
